createdAt,value
2018-07-05T00:01:29.077Z,65.20
2018-07-05T00:04:16.104Z,65.40
2018-07-05T00:07:03.371Z,65.60
2018-07-05T00:09:50.591Z,65.60
2018-07-05T00:12:37.695Z,66.00
2018-07-05T00:15:24.771Z,66.10
2018-07-05T00:18:11.729Z,66.40
2018-07-05T00:20:58.677Z,66.70
2018-07-05T00:23:45.812Z,67.20
2018-07-05T00:26:32.843Z,67.40
2018-07-05T00:29:19.861Z,67.60
2018-07-05T00:32:06.947Z,68.00
2018-07-05T00:34:54.158Z,68.30
2018-07-05T00:37:41.213Z,68.40
2018-07-05T00:40:28.402Z,68.50
2018-07-05T00:45:58.035Z,68.50
2018-07-05T00:48:45.107Z,68.50
2018-07-05T00:51:32.448Z,68.50
2018-07-05T00:54:19.764Z,68.40
2018-07-05T00:57:06.730Z,68.30
2018-07-05T00:59:53.751Z,68.60
2018-07-05T01:02:41.531Z,69.00
2018-07-05T01:05:28.460Z,68.50
2018-07-05T01:08:15.480Z,68.50
2018-07-05T01:11:02.575Z,68.30
2018-07-05T01:13:49.692Z,68.10
2018-07-05T01:16:36.894Z,68.10
2018-07-05T01:19:24.068Z,68.20
2018-07-05T01:22:11.202Z,68.10
2018-07-05T01:24:58.220Z,68.50
2018-07-05T01:27:45.224Z,68.60
2018-07-05T01:30:32.159Z,68.90
2018-07-05T01:33:19.655Z,69.00
2018-07-05T01:36:06.613Z,69.30
2018-07-05T01:38:53.658Z,69.20
2018-07-05T01:41:40.731Z,69.30
2018-07-05T01:44:27.560Z,69.60
2018-07-05T01:47:14.461Z,69.80
2018-07-05T01:50:01.604Z,70.00
2018-07-05T01:52:48.651Z,70.10
2018-07-05T01:55:35.626Z,70.10
2018-07-05T01:58:22.526Z,70.20
2018-07-05T02:01:09.597Z,70.40
2018-07-05T02:03:56.618Z,70.30
2018-07-05T02:06:43.458Z,70.50
2018-07-05T02:09:30.425Z,70.60
2018-07-05T02:12:17.397Z,70.60
2018-07-05T02:15:05.214Z,71.20
2018-07-05T02:17:52.314Z,70.40
2018-07-05T02:20:39.454Z,69.70
2018-07-05T02:23:26.703Z,70.50
2018-07-05T02:26:13.644Z,70.40
2018-07-05T02:31:41.408Z,70.50
2018-07-05T02:34:28.537Z,70.70
2018-07-05T02:37:20.901Z,70.80
2018-07-05T02:40:07.934Z,70.90
2018-07-05T02:42:55.708Z,71.10
2018-07-05T02:45:42.816Z,71.10
2018-07-05T02:48:29.928Z,71.30
2018-07-05T02:51:16.880Z,71.30
2018-07-05T02:54:03.860Z,71.40
2018-07-05T02:56:50.864Z,71.80
2018-07-05T02:59:38.092Z,72.30
2018-07-05T03:02:25.417Z,72.80
2018-07-05T03:05:12.484Z,72.90
2018-07-05T03:07:59.472Z,73.10
2018-07-05T03:10:46.580Z,73.30
2018-07-05T03:13:33.564Z,73.20
2018-07-05T03:16:20.620Z,73.40
2018-07-05T03:19:07.730Z,73.40
2018-07-05T03:21:54.854Z,73.30
2018-07-05T03:24:41.985Z,73.30
2018-07-05T03:27:29.156Z,73.50
2018-07-05T03:30:16.292Z,73.50
2018-07-05T03:35:44.316Z,73.90
2018-07-05T03:38:31.332Z,74.30
2018-07-05T03:41:18.273Z,75.00
2018-07-05T03:44:05.716Z,75.20
2018-07-05T03:46:52.651Z,75.60
2018-07-05T03:49:39.552Z,75.90
2018-07-05T03:52:26.677Z,76.00
2018-07-05T03:55:13.688Z,75.90
2018-07-05T03:58:00.685Z,75.90
2018-07-05T04:00:47.643Z,75.90
2018-07-05T04:03:34.751Z,75.90
2018-07-05T04:06:21.748Z,75.50
2018-07-05T04:09:08.762Z,75.40
2018-07-05T04:11:55.600Z,75.30
2018-07-05T04:14:42.518Z,75.20
2018-07-05T04:17:29.437Z,75.20
2018-07-05T04:20:16.447Z,74.80
2018-07-05T04:23:03.792Z,74.30
2018-07-05T04:25:50.897Z,73.90
2018-07-05T04:28:38.004Z,73.90
2018-07-05T04:31:24.989Z,73.80
2018-07-05T04:34:12.008Z,73.70
2018-07-05T04:36:58.955Z,73.50
2018-07-05T04:39:45.804Z,74.30
2018-07-05T04:42:32.974Z,73.70
2018-07-05T04:45:20.019Z,73.70
2018-07-05T04:48:07.059Z,73.80
2018-07-05T04:50:54.044Z,73.80
2018-07-05T04:53:41.043Z,74.10
2018-07-05T04:56:28.074Z,74.30
2018-07-05T04:59:15.103Z,74.60
2018-07-05T05:02:02.255Z,74.90
2018-07-05T05:04:49.241Z,74.70
2018-07-05T05:07:36.217Z,74.70
2018-07-05T05:10:23.290Z,74.80
2018-07-05T05:13:10.065Z,75.00
2018-07-05T05:15:57.835Z,74.70
2018-07-05T05:18:44.882Z,74.60
2018-07-05T05:21:31.896Z,75.30
2018-07-05T05:24:18.843Z,74.50
2018-07-05T05:27:05.747Z,74.40
2018-07-05T05:29:52.967Z,74.30
2018-07-05T05:32:40.045Z,74.10
2018-07-05T05:35:27.164Z,74.30
2018-07-05T05:38:14.216Z,74.20
2018-07-05T05:41:01.206Z,74.20
2018-07-05T05:43:48.374Z,74.00
2018-07-05T05:46:35.466Z,74.00
2018-07-05T05:49:22.354Z,73.80
2018-07-05T05:52:09.385Z,73.80
2018-07-05T05:54:56.447Z,73.70
2018-07-05T05:57:43.952Z,73.70
2018-07-05T06:00:31.049Z,73.70
2018-07-05T06:03:18.248Z,73.70
2018-07-05T06:06:05.800Z,73.60
2018-07-05T06:08:53.031Z,73.30
2018-07-05T06:11:40.056Z,73.10
2018-07-05T06:14:27.048Z,73.40
2018-07-05T06:17:14.140Z,72.20
2018-07-05T06:20:01.037Z,71.80
2018-07-05T06:22:48.110Z,71.60
2018-07-05T06:25:35.754Z,71.40
2018-07-05T06:28:22.760Z,71.30
2018-07-05T06:31:09.772Z,71.30
2018-07-05T06:33:56.990Z,71.40
2018-07-05T06:36:44.031Z,71.10
2018-07-05T06:39:30.920Z,70.70
2018-07-05T06:42:17.957Z,70.90
2018-07-05T06:45:05.035Z,69.70
2018-07-05T06:47:52.070Z,68.90
2018-07-05T06:50:39.063Z,68.50
2018-07-05T06:53:26.001Z,68.00
2018-07-05T06:56:12.930Z,67.70
2018-07-05T06:59:00.038Z,67.60
2018-07-05T07:01:46.908Z,67.10
2018-07-05T07:04:34.033Z,66.60
2018-07-05T07:07:20.943Z,66.10
2018-07-05T07:10:07.922Z,65.60
2018-07-05T07:12:55.016Z,65.10
2018-07-05T07:15:42.142Z,64.50
2018-07-05T07:18:29.067Z,63.90
2018-07-05T07:21:16.046Z,62.70
2018-07-05T07:24:02.804Z,62.00
2018-07-05T07:26:49.803Z,61.30
2018-07-05T07:29:36.819Z,61.30
2018-07-05T07:32:24.040Z,61.30
2018-07-05T07:35:11.008Z,61.10
2018-07-05T07:37:57.928Z,61.00
2018-07-05T07:40:45.060Z,60.70
2018-07-05T07:43:13.418Z,60.20
2018-07-05T07:45:41.841Z,60.10
2018-07-05T07:48:10.464Z,60.00
2018-07-05T07:50:38.819Z,59.70
2018-07-05T07:53:07.577Z,59.20
2018-07-05T07:55:35.925Z,58.70
2018-07-05T07:58:04.327Z,58.30
2018-07-05T08:00:33.269Z,58.30
2018-07-05T08:03:01.914Z,57.80
2018-07-05T08:05:30.284Z,57.40
2018-07-05T08:07:58.661Z,57.10
2018-07-05T08:10:27.002Z,56.90
2018-07-05T08:12:55.391Z,56.80
2018-07-05T08:15:23.779Z,56.50
2018-07-05T08:17:52.126Z,56.40
2018-07-05T08:20:20.553Z,56.30
2018-07-05T08:22:49.319Z,55.80
2018-07-05T08:25:18.154Z,55.20
2018-07-05T08:27:46.875Z,55.10
2018-07-05T08:30:15.229Z,55.10
2018-07-05T08:32:44.047Z,55.70
2018-07-05T08:35:12.445Z,54.80
2018-07-05T08:37:40.792Z,54.60
2018-07-05T08:40:09.202Z,54.60
2018-07-05T08:42:37.549Z,54.40
2018-07-05T08:45:05.924Z,54.50
2018-07-05T08:47:34.295Z,54.30
2018-07-05T08:50:05.700Z,54.10
2018-07-05T08:52:34.076Z,53.30
2018-07-05T08:55:02.450Z,53.10
2018-07-05T08:57:30.794Z,52.40
2018-07-05T08:59:59.556Z,52.20
2018-07-05T09:02:27.922Z,52.10
2018-07-05T09:04:56.353Z,51.20
2018-07-05T09:07:24.735Z,50.40
2018-07-05T09:09:53.159Z,49.40
2018-07-05T09:12:21.521Z,48.90
2018-07-05T09:14:49.916Z,48.80
2018-07-05T09:17:18.308Z,48.80
2018-07-05T09:19:46.672Z,48.40
2018-07-05T09:22:15.099Z,47.70
2018-07-05T09:24:43.498Z,47.50
2018-07-05T09:27:11.909Z,46.50
2018-07-05T09:32:09.504Z,46.70
2018-07-05T09:34:37.829Z,45.20
2018-07-05T09:37:06.354Z,45.50
2018-07-05T09:39:34.794Z,45.80
2018-07-05T09:42:03.197Z,46.00
2018-07-05T09:44:31.556Z,45.90
2018-07-05T09:47:00.108Z,45.80
2018-07-05T09:49:28.497Z,44.80
2018-07-05T09:51:56.852Z,43.90
2018-07-05T09:54:25.220Z,43.20
2018-07-05T09:56:53.555Z,42.60
2018-07-05T09:59:21.926Z,41.40
2018-07-05T10:01:50.318Z,40.40
2018-07-05T10:04:18.682Z,40.90
2018-07-05T10:06:47.007Z,41.60
2018-07-05T10:09:15.371Z,41.90
2018-07-05T10:11:43.796Z,42.20
2018-07-05T10:14:12.141Z,41.90
2018-07-05T10:16:40.512Z,41.80
2018-07-05T10:19:08.870Z,41.20
2018-07-05T10:21:37.287Z,41.30
2018-07-05T10:24:05.704Z,41.30
2018-07-05T10:26:34.067Z,40.90
2018-07-05T10:29:21.405Z,40.90
2018-07-05T10:32:08.399Z,40.70
2018-07-05T10:34:36.765Z,40.10
2018-07-05T10:37:05.122Z,40.20
2018-07-05T10:39:33.522Z,39.70
2018-07-05T10:42:20.388Z,39.80
2018-07-05T10:45:07.327Z,39.90
2018-07-05T10:47:54.510Z,40.10
2018-07-05T10:50:41.650Z,39.90
2018-07-05T10:53:28.551Z,39.20
2018-07-05T10:56:15.453Z,39.40
2018-07-05T10:59:02.615Z,39.00
2018-07-05T11:01:49.694Z,38.80
2018-07-05T11:04:36.877Z,38.60
2018-07-05T11:07:24.011Z,37.70
2018-07-05T11:10:11.127Z,37.30
2018-07-05T11:12:58.368Z,36.90
2018-07-05T11:15:45.209Z,36.20
2018-07-05T11:18:32.154Z,36.50
2018-07-05T11:21:19.300Z,36.80
2018-07-05T11:24:06.367Z,37.50
2018-07-05T11:26:53.543Z,36.80
2018-07-05T11:29:40.626Z,36.90
2018-07-05T11:32:27.952Z,36.70
2018-07-05T11:35:14.956Z,36.70
2018-07-05T11:38:02.075Z,36.50
2018-07-05T11:40:49.296Z,36.30
2018-07-05T11:43:36.300Z,36.30
2018-07-05T11:46:23.341Z,36.30
2018-07-05T11:49:10.491Z,36.10
2018-07-05T11:51:57.482Z,36.10
2018-07-05T11:54:44.928Z,36.50
2018-07-05T11:57:31.844Z,36.80
2018-07-05T12:00:18.920Z,37.00
2018-07-05T12:03:07.186Z,36.60
2018-07-05T12:05:54.203Z,36.30
2018-07-05T12:08:41.272Z,35.70
2018-07-05T12:11:28.380Z,34.80
2018-07-05T12:14:15.329Z,34.00
2018-07-05T12:17:02.345Z,33.50
2018-07-05T12:19:49.383Z,33.70
2018-07-05T12:22:36.335Z,33.50
2018-07-05T12:25:23.301Z,33.40
2018-07-05T12:28:10.387Z,33.50
2018-07-05T12:30:57.479Z,34.00
2018-07-05T12:33:44.479Z,36.10
2018-07-05T12:36:31.803Z,37.70
2018-07-05T12:39:18.734Z,38.60
2018-07-05T12:42:05.887Z,39.10
2018-07-05T12:44:52.915Z,39.70
2018-07-05T12:47:40.019Z,40.60
2018-07-05T12:50:26.869Z,41.20
2018-07-05T12:53:14.446Z,42.30
2018-07-05T12:56:01.539Z,44.60
2018-07-05T12:58:48.629Z,48.20
2018-07-05T13:01:35.684Z,52.10
2018-07-05T13:04:22.852Z,56.00
2018-07-05T13:07:09.841Z,56.90
2018-07-05T13:09:56.749Z,58.20
2018-07-05T13:12:43.859Z,57.60
2018-07-05T13:15:30.927Z,57.80
2018-07-05T13:18:17.962Z,58.70
2018-07-05T13:21:04.945Z,59.40
2018-07-05T13:23:51.879Z,59.20
2018-07-05T13:26:38.973Z,57.10
2018-07-05T13:29:26.036Z,54.90
2018-07-05T13:32:12.852Z,53.60
2018-07-05T13:34:59.712Z,54.40
2018-07-05T13:37:46.767Z,55.70
2018-07-05T13:40:33.941Z,57.40
2018-07-05T13:43:21.327Z,59.20
2018-07-05T13:46:08.552Z,61.90
2018-07-05T13:48:55.582Z,63.20
2018-07-05T13:51:42.571Z,63.60
2018-07-05T13:54:29.565Z,62.90
2018-07-05T13:57:16.519Z,61.70
2018-07-05T14:00:03.521Z,60.70
2018-07-05T14:02:51.704Z,58.20
2018-07-05T14:05:38.704Z,56.30
2018-07-05T14:08:25.681Z,56.90
2018-07-05T14:11:12.786Z,56.70
2018-07-05T14:14:00.068Z,56.90
2018-07-05T14:16:47.044Z,57.80
2018-07-05T14:19:34.083Z,59.90
2018-07-05T14:22:21.093Z,62.00
2018-07-05T14:25:08.057Z,65.50
2018-07-05T14:27:55.195Z,69.00
2018-07-05T14:30:42.431Z,72.30
2018-07-05T14:33:29.497Z,75.60
2018-07-05T14:36:16.664Z,79.40
2018-07-05T14:39:04.561Z,83.30
2018-07-05T14:41:51.728Z,86.30
2018-07-05T14:44:38.672Z,88.30
2018-07-05T14:47:25.735Z,90.60
2018-07-05T14:50:12.690Z,91.60
2018-07-05T14:53:02.078Z,92.50
2018-07-05T14:55:49.245Z,93.20
2018-07-05T14:58:36.362Z,93.50
2018-07-05T15:01:23.391Z,94.20
2018-07-05T15:04:10.474Z,94.40
2018-07-05T15:06:57.591Z,94.90
2018-07-05T15:09:44.533Z,95.30
2018-07-05T15:12:31.454Z,95.80
2018-07-05T15:15:18.615Z,96.20
2018-07-05T15:18:05.643Z,96.40
2018-07-05T15:20:52.700Z,96.50
2018-07-05T15:26:20.811Z,97.10
2018-07-05T15:29:07.996Z,97.30
2018-07-05T15:31:55.005Z,97.40
2018-07-05T15:34:41.957Z,97.30
2018-07-05T15:37:28.973Z,97.40
2018-07-05T15:40:15.974Z,97.40
2018-07-05T15:43:03.426Z,97.40
2018-07-05T15:45:50.356Z,97.40
2018-07-05T15:48:37.270Z,97.50
2018-07-05T15:51:24.445Z,97.50
2018-07-05T15:54:11.562Z,97.60
2018-07-05T15:56:58.648Z,97.70
2018-07-05T15:59:45.746Z,97.80
2018-07-05T16:02:32.922Z,97.90
2018-07-05T16:05:20.046Z,97.90
2018-07-05T16:08:07.055Z,98.00
2018-07-05T16:10:54.238Z,97.80
2018-07-05T16:13:41.276Z,97.50
2018-07-05T16:16:28.362Z,97.40
2018-07-05T16:19:15.505Z,97.50
2018-07-05T16:22:02.658Z,97.50
2018-07-05T16:24:49.717Z,97.70
2018-07-05T16:27:37.158Z,98.00
2018-07-05T16:30:24.284Z,98.10
2018-07-05T16:33:11.756Z,98.30
2018-07-05T16:35:58.880Z,98.40
2018-07-05T16:38:46.054Z,98.50
2018-07-05T16:41:33.770Z,98.50
2018-07-05T16:44:20.774Z,98.30
2018-07-05T16:47:07.791Z,97.90
2018-07-05T16:49:54.711Z,97.40
2018-07-05T16:52:42.951Z,97.80
2018-07-05T16:55:29.977Z,98.20
2018-07-05T16:58:16.987Z,98.50
2018-07-05T17:01:04.177Z,98.80
2018-07-05T17:03:51.346Z,98.40
2018-07-05T17:06:38.448Z,98.80
2018-07-05T17:12:06.531Z,98.50
2018-07-05T17:14:54.512Z,98.60
2018-07-05T17:17:41.661Z,98.60
2018-07-05T17:20:28.572Z,98.50
2018-07-05T17:23:16.399Z,98.60
2018-07-05T17:26:03.375Z,98.50
2018-07-05T17:28:50.834Z,98.60
2018-07-05T17:31:37.928Z,98.60
2018-07-05T17:34:25.234Z,98.60
2018-07-05T17:37:12.335Z,98.50
2018-07-05T17:39:59.509Z,98.60
2018-07-05T17:42:47.629Z,98.60
2018-07-05T17:45:34.612Z,98.60
2018-07-05T17:48:21.566Z,98.70
2018-07-05T17:51:08.642Z,98.60
2018-07-05T17:53:55.822Z,98.50
2018-07-05T17:56:42.983Z,98.40
2018-07-05T17:59:30.137Z,98.30
2018-07-05T18:02:17.287Z,98.10
2018-07-05T18:05:04.278Z,98.00
2018-07-05T18:07:51.218Z,97.90
2018-07-05T18:10:38.454Z,97.80
2018-07-05T18:13:25.406Z,97.70
2018-07-05T18:16:12.546Z,97.70
2018-07-05T18:18:59.633Z,97.60
2018-07-05T18:21:46.422Z,97.50
2018-07-05T18:24:33.479Z,97.30
2018-07-05T18:27:20.522Z,97.20
2018-07-05T18:30:07.706Z,97.00
2018-07-05T18:35:35.845Z,96.60
2018-07-05T18:38:22.751Z,96.60
2018-07-05T18:41:09.658Z,96.30
2018-07-05T18:43:56.767Z,96.30
2018-07-05T18:46:43.791Z,96.30
2018-07-05T18:49:30.715Z,96.20
2018-07-05T18:52:17.754Z,96.30
2018-07-05T18:55:04.690Z,96.70
2018-07-05T18:57:51.827Z,96.60
2018-07-05T19:00:38.807Z,96.60
2018-07-05T19:03:26.410Z,96.40
2018-07-05T19:06:13.500Z,96.40
2018-07-05T19:09:00.404Z,96.10
2018-07-05T19:11:47.535Z,95.90
2018-07-05T19:14:34.555Z,96.00
2018-07-05T19:17:21.890Z,96.00
2018-07-05T19:20:08.884Z,96.00
2018-07-05T19:22:56.200Z,96.00
2018-07-05T19:25:43.456Z,95.90
2018-07-05T19:28:30.645Z,96.00
2018-07-05T19:31:17.542Z,96.20
2018-07-05T19:34:04.602Z,96.20
2018-07-05T19:36:51.584Z,96.30
2018-07-05T19:39:38.809Z,96.30
2018-07-05T19:42:25.920Z,96.20
2018-07-05T19:45:12.892Z,96.30
2018-07-05T19:48:00.295Z,96.40
2018-07-05T19:50:47.310Z,96.50
2018-07-05T19:56:15.330Z,96.50
2018-07-05T19:59:02.225Z,96.40
2018-07-05T20:01:49.295Z,96.40
2018-07-05T20:04:36.326Z,96.40
2018-07-05T20:07:23.514Z,96.40
2018-07-05T20:10:10.761Z,96.40
2018-07-05T20:12:58.444Z,96.40
2018-07-05T20:15:45.540Z,96.40
2018-07-05T20:18:32.700Z,96.40
2018-07-05T20:21:19.901Z,96.30
2018-07-05T20:24:06.970Z,96.50
2018-07-05T20:26:54.551Z,96.50
2018-07-05T20:29:41.644Z,96.40
2018-07-05T20:32:28.673Z,96.30
2018-07-05T20:35:15.825Z,96.40
2018-07-05T20:38:02.807Z,96.40
2018-07-05T20:40:50.044Z,96.40
2018-07-05T20:43:36.967Z,96.40
2018-07-05T20:46:24.020Z,96.40
2018-07-05T20:49:11.241Z,96.40
2018-07-05T20:51:58.309Z,96.40
2018-07-05T20:54:45.905Z,96.40
2018-07-05T20:57:32.941Z,96.60
2018-07-05T21:00:19.876Z,96.30
2018-07-05T21:03:07.627Z,96.40
2018-07-05T21:05:54.677Z,96.40
2018-07-05T21:08:41.875Z,96.40
2018-07-05T21:11:29.033Z,96.40
2018-07-05T21:14:16.363Z,96.40
2018-07-05T21:17:03.410Z,96.40
2018-07-05T21:22:50.464Z,96.40
2018-07-05T21:25:37.598Z,96.40
2018-07-05T21:28:24.515Z,96.30
2018-07-05T21:31:11.835Z,96.40
2018-07-05T21:33:58.968Z,96.40
2018-07-05T21:36:46.047Z,96.50
2018-07-05T21:39:33.055Z,96.50
2018-07-05T21:42:20.226Z,96.60
2018-07-05T21:45:07.389Z,96.50
2018-07-05T21:47:54.527Z,96.40
2018-07-05T21:50:41.579Z,96.30
2018-07-05T21:53:28.799Z,96.20
2018-07-05T21:56:15.923Z,96.00
2018-07-05T21:59:02.997Z,95.80
2018-07-05T22:01:49.999Z,95.70
2018-07-05T22:04:37.142Z,95.70
2018-07-05T22:07:24.256Z,95.70
2018-07-05T22:10:11.289Z,95.50
2018-07-05T22:12:58.403Z,95.40
2018-07-05T22:15:45.484Z,95.30
2018-07-05T22:18:37.908Z,95.20
2018-07-05T22:21:24.974Z,95.10
2018-07-05T22:24:17.334Z,95.10
2018-07-05T22:27:04.394Z,94.90
2018-07-05T22:29:56.694Z,94.60
2018-07-05T22:32:44.149Z,94.40
2018-07-05T22:35:31.192Z,94.40
2018-07-05T22:38:18.186Z,94.10
2018-07-05T22:41:05.195Z,94.10
2018-07-05T22:43:52.258Z,94.00
2018-07-05T22:46:39.364Z,94.10
2018-07-05T22:49:26.268Z,94.10
2018-07-05T22:52:13.301Z,94.10
2018-07-05T22:55:00.245Z,94.00
2018-07-05T22:57:47.341Z,94.00
2018-07-05T23:00:34.296Z,94.00
2018-07-05T23:03:21.366Z,94.20
2018-07-05T23:06:08.374Z,94.30
2018-07-05T23:08:55.580Z,94.30
2018-07-05T23:11:42.529Z,94.20
2018-07-05T23:14:29.583Z,94.30
2018-07-05T23:17:16.512Z,94.20
2018-07-05T23:20:03.518Z,94.10
2018-07-05T23:22:50.665Z,94.10
2018-07-05T23:25:37.694Z,94.20
2018-07-05T23:28:24.544Z,94.50
2018-07-05T23:31:11.464Z,94.70
2018-07-05T23:33:58.357Z,94.70
2018-07-05T23:36:45.357Z,94.70
2018-07-05T23:39:32.429Z,94.80
2018-07-05T23:45:00.522Z,95.00
2018-07-05T23:47:47.305Z,95.00
2018-07-05T23:50:34.227Z,94.90
2018-07-05T23:53:21.647Z,95.00
2018-07-05T23:56:08.796Z,95.10
2018-07-05T23:58:55.829Z,95.10
